Terminal Aerodrome Forecast
Issued by NWS

Home | Current Version | Previous Version | Graphics & Text | Print | Product List | Glossary On
Versions: 1 2 3 4 5 6 7 8 9 10 11 12 13 14
000
FTUS43 KBIS 272300
TAFDIK
TAF
KDIK 272324Z 2800/2824 VRB05KT P6SM BKN150
     FM281200 32013KT P6SM OVC100
     FM281700 32021G30KT P6SM BKN008=

USA.gov is the U.S. government's official web portal to all federal, state and local government web resources and services.